Nearby METAR Reports

 

EGKB - Biggin Hill, United Kingdom
Distance from station: S 5mi, 8km
Updated: 19/12/2014 12:20
Few Clouds
Few Clouds
 Wind from WNW
Wind: WNW 17 mph , 28 km/h
Temperature: 8°C
Wind Chill: 4°C
Dew Point: 0°C
Humidity: 57%
Barometer: 1016 hPa
Clouds: Few Clouds
Visibility: 6 miles , 10 km
Cloud details: Few Clouds 762 m
2014/12/19 12:20 EGKB 191220Z 29015KT 260V320 9999 FEW025 08/M00 Q1016
EGLC - London City Airp, United Kingdom
Distance from station: NNE 8mi, 13km
Updated: 19/12/2014 12:20
Clear
Clear
 Wind from W
Wind: W 21 mph , 33 km/h
Temperature: 10°C
Wind Chill: 6°C
Dew Point: 1°C
Humidity: 54%
Barometer: 1016 hPa
Summary: Clear
Visibility: greater than 7 miles , 10 km
2014/12/19 12:20 EGLC 191220Z 28018KT CAVOK 10/01 Q1016
 
EGKK - London/Gatwick A, United Kingdom
Distance from station: SSW 19mi, 31km
Updated: 19/12/2014 12:20
Few Clouds
Few Clouds
 Wind from W
Wind: W 16 mph , 26 km/h
Temperature: 9°C
Wind Chill: 6°C
Dew Point: 3°C
Humidity: 66%
Barometer: 1016 hPa
Clouds: Few Clouds
Visibility: 6 miles , 10 km
Cloud details: Few Clouds 1036 m
2014/12/19 12:20 EGKK 191220Z 28014KT 9999 FEW034 09/03 Q1016
EGLL - London/Heathrow, United Kingdom
Distance from station: WNW 21mi, 33km
Updated: 19/12/2014 12:20
Clear
Clear
 Wind from W
Wind: W 15 mph , 24 km/h
Temperature: 10°C
Wind Chill: 7°C
Dew Point: 2°C
Humidity: 58%
Barometer: 1016 hPa
Summary: Clear
Visibility: greater than 7 miles , 10 km
2014/12/19 12:20 EGLL 191220Z 28013KT CAVOK 10/02 Q1016 NOSIG